Terminal Aerodrome Forecast
Issued by NWS

Home | Current Version | Previous Version | Text Only | Print | Product List | Glossary On
Versions: 1 2 3 4 5 6 7 8 9 10 11 12
495
FTUS45 KABQ 230533
TAFAEG
TAF
KAEG 230533Z 2306/2406 23015KT P6SM SCT200
     FM231600 19015KT P6SM SCT140
     FM232000 27025G37KT P6SM BKN090
     FM232300 27032G42KT P6SM VCSH BKN070
     FM240200 27025KT P6SM BKN050=

USA.gov is the U.S. government's official web portal to all federal, state and local government web resources and services.